sensor_id;sensor_type;location;lat;lon;timestamp;P1;durP1;ratioP1;P2;durP2;ratioP2
10473;SDS011;5284;50.446;7.904;2024-01-06T00:01:30;11.50;;;1.55;;
10473;SDS011;5284;50.446;7.904;2024-01-06T00:06:33;4.60;;;1.40;;
10473;SDS011;5284;50.446;7.904;2024-01-06T00:11:38;4.13;;;1.45;;
10473;SDS011;5284;50.446;7.904;2024-01-06T00:16:43;5.60;;;1.63;;
10473;SDS011;5284;50.446;7.904;2024-01-06T00:21:48;8.27;;;1.33;;
10473;SDS011;5284;50.446;7.904;2024-01-06T00:26:51;3.00;;;1.45;;
10473;SDS011;5284;50.446;7.904;2024-01-06T00:31:56;4.68;;;1.25;;
10473;SDS011;5284;50.446;7.904;2024-01-06T00:36:59;3.63;;;1.52;;
10473;SDS011;5284;50.446;7.904;2024-01-06T00:42:02;12.45;;;1.63;;
10473;SDS011;5284;50.446;7.904;2024-01-06T00:47:08;3.13;;;1.00;;
10473;SDS011;5284;50.446;7.904;2024-01-06T00:52:11;8.63;;;1.23;;
10473;SDS011;5284;50.446;7.904;2024-01-06T00:57:15;5.93;;;1.05;;
10473;SDS011;5284;50.446;7.904;2024-01-06T01:02:19;5.88;;;1.13;;
10473;SDS011;5284;50.446;7.904;2024-01-06T01:07:22;4.50;;;1.33;;
10473;SDS011;5284;50.446;7.904;2024-01-06T01:12:28;3.67;;;1.30;;
10473;SDS011;5284;50.446;7.904;2024-01-06T01:17:32;4.00;;;1.52;;
10473;SDS011;5284;50.446;7.904;2024-01-06T01:27:43;2.15;;;1.20;;
10473;SDS011;5284;50.446;7.904;2024-01-06T01:32:47;10.43;;;1.38;;
10473;SDS011;5284;50.446;7.904;2024-01-06T01:37:50;3.90;;;1.20;;
10473;SDS011;5284;50.446;7.904;2024-01-06T01:42:53;3.22;;;1.70;;
10473;SDS011;5284;50.446;7.904;2024-01-06T01:47:58;4.57;;;1.50;;
10473;SDS011;5284;50.446;7.904;2024-01-06T01:53:01;3.40;;;1.77;;
10473;SDS011;5284;50.446;7.904;2024-01-06T01:58:04;6.22;;;1.30;;
10473;SDS011;5284;50.446;7.904;2024-01-06T02:03:09;3.58;;;1.15;;
10473;SDS011;5284;50.446;7.904;2024-01-06T02:08:15;2.15;;;0.90;;
10473;SDS011;5284;50.446;7.904;2024-01-06T02:13:18;7.97;;;1.23;;
10473;SDS011;5284;50.446;7.904;2024-01-06T02:18:22;3.00;;;1.40;;
10473;SDS011;5284;50.446;7.904;2024-01-06T02:23:27;5.50;;;1.35;;
10473;SDS011;5284;50.446;7.904;2024-01-06T02:28:31;2.88;;;1.25;;
10473;SDS011;5284;50.446;7.904;2024-01-06T02:33:35;6.57;;;1.55;;
10473;SDS011;5284;50.446;7.904;2024-01-06T02:38:40;7.78;;;1.35;;
10473;SDS011;5284;50.446;7.904;2024-01-06T02:43:43;1.63;;;1.02;;
10473;SDS011;5284;50.446;7.904;2024-01-06T02:48:50;3.17;;;1.45;;
10473;SDS011;5284;50.446;7.904;2024-01-06T02:53:55;4.18;;;1.25;;
10473;SDS011;5284;50.446;7.904;2024-01-06T02:59:00;6.88;;;1.60;;
10473;SDS011;5284;50.446;7.904;2024-01-06T03:04:05;22.20;;;1.83;;
10473;SDS011;5284;50.446;7.904;2024-01-06T03:09:09;2.20;;;1.00;;
10473;SDS011;5284;50.446;7.904;2024-01-06T03:14:13;4.55;;;1.52;;
10473;SDS011;5284;50.446;7.904;2024-01-06T03:19:16;1.60;;;1.10;;
10473;SDS011;5284;50.446;7.904;2024-01-06T03:24:22;3.40;;;1.00;;
10473;SDS011;5284;50.446;7.904;2024-01-06T03:29:26;4.78;;;1.42;;
10473;SDS011;5284;50.446;7.904;2024-01-06T03:34:30;5.32;;;1.63;;
10473;SDS011;5284;50.446;7.904;2024-01-06T03:39:34;5.85;;;1.90;;
10473;SDS011;5284;50.446;7.904;2024-01-06T03:44:37;7.43;;;1.45;;
10473;SDS011;5284;50.446;7.904;2024-01-06T03:49:40;3.67;;;1.73;;
10473;SDS011;5284;50.446;7.904;2024-01-06T03:54:44;2.55;;;2.03;;
10473;SDS011;5284;50.446;7.904;2024-01-06T03:59:47;8.02;;;2.08;;
10473;SDS011;5284;50.446;7.904;2024-01-06T04:04:51;5.18;;;1.70;;
10473;SDS011;5284;50.446;7.904;2024-01-06T04:09:57;8.50;;;1.58;;
10473;SDS011;5284;50.446;7.904;2024-01-06T04:15:01;8.70;;;1.27;;
10473;SDS011;5284;50.446;7.904;2024-01-06T04:20:05;7.30;;;2.03;;
10473;SDS011;5284;50.446;7.904;2024-01-06T04:25:10;3.30;;;1.25;;
10473;SDS011;5284;50.446;7.904;2024-01-06T04:30:13;5.18;;;2.03;;
10473;SDS011;5284;50.446;7.904;2024-01-06T04:35:17;7.35;;;1.70;;
10473;SDS011;5284;50.446;7.904;2024-01-06T04:40:22;7.50;;;1.15;;
10473;SDS011;5284;50.446;7.904;2024-01-06T04:45:25;7.43;;;1.63;;
10473;SDS011;5284;50.446;7.904;2024-01-06T04:50:28;5.53;;;1.52;;
10473;SDS011;5284;50.446;7.904;2024-01-06T04:55:32;3.78;;;1.10;;
10473;SDS011;5284;50.446;7.904;2024-01-06T05:00:36;2.08;;;1.48;;
10473;SDS011;5284;50.446;7.904;2024-01-06T05:05:40;3.38;;;1.35;;
10473;SDS011;5284;50.446;7.904;2024-01-06T05:10:45;3.38;;;1.33;;
10473;SDS011;5284;50.446;7.904;2024-01-06T05:15:50;3.40;;;1.73;;
10473;SDS011;5284;50.446;7.904;2024-01-06T05:20:53;5.28;;;1.30;;
10473;SDS011;5284;50.446;7.904;2024-01-06T05:25:58;4.00;;;1.48;;
10473;SDS011;5284;50.446;7.904;2024-01-06T05:36:07;1.75;;;0.85;;
10473;SDS011;5284;50.446;7.904;2024-01-06T05:41:12;4.18;;;1.50;;
10473;SDS011;5284;50.446;7.904;2024-01-06T05:46:20;1.42;;;1.27;;
10473;SDS011;5284;50.446;7.904;2024-01-06T05:51:23;5.43;;;2.03;;
10473;SDS011;5284;50.446;7.904;2024-01-06T05:56:29;2.80;;;1.77;;
10473;SDS011;5284;50.446;7.904;2024-01-06T06:01:33;2.60;;;1.55;;
10473;SDS011;5284;50.446;7.904;2024-01-06T06:06:39;3.92;;;1.90;;
10473;SDS011;5284;50.446;7.904;2024-01-06T06:11:43;5.07;;;1.50;;
10473;SDS011;5284;50.446;7.904;2024-01-06T06:16:47;3.78;;;1.60;;
10473;SDS011;5284;50.446;7.904;2024-01-06T06:21:50;6.82;;;1.30;;
10473;SDS011;5284;50.446;7.904;2024-01-06T06:26:55;9.30;;;1.92;;
10473;SDS011;5284;50.446;7.904;2024-01-06T06:31:58;4.95;;;1.90;;
10473;SDS011;5284;50.446;7.904;2024-01-06T06:37:01;2.85;;;1.60;;
10473;SDS011;5284;50.446;7.904;2024-01-06T06:42:06;2.35;;;1.42;;
10473;SDS011;5284;50.446;7.904;2024-01-06T06:47:10;15.50;;;1.83;;
10473;SDS011;5284;50.446;7.904;2024-01-06T06:52:16;3.95;;;2.85;;
10473;SDS011;5284;50.446;7.904;2024-01-06T06:57:20;6.03;;;3.33;;
10473;SDS011;5284;50.446;7.904;2024-01-06T07:02:23;11.93;;;4.75;;
10473;SDS011;5284;50.446;7.904;2024-01-06T07:07:27;7.55;;;4.20;;
10473;SDS011;5284;50.446;7.904;2024-01-06T07:12:31;11.73;;;5.88;;
10473;SDS011;5284;50.446;7.904;2024-01-06T07:17:38;9.02;;;3.72;;
10473;SDS011;5284;50.446;7.904;2024-01-06T07:22:41;6.85;;;3.80;;
10473;SDS011;5284;50.446;7.904;2024-01-06T07:27:49;6.65;;;3.35;;
10473;SDS011;5284;50.446;7.904;2024-01-06T07:32:56;8.43;;;3.72;;
10473;SDS011;5284;50.446;7.904;2024-01-06T07:38:01;16.13;;;5.53;;
10473;SDS011;5284;50.446;7.904;2024-01-06T07:43:05;15.23;;;4.07;;
10473;SDS011;5284;50.446;7.904;2024-01-06T07:48:09;8.32;;;2.33;;
10473;SDS011;5284;50.446;7.904;2024-01-06T07:53:12;3.33;;;1.65;;
10473;SDS011;5284;50.446;7.904;2024-01-06T07:58:17;5.82;;;2.88;;
10473;SDS011;5284;50.446;7.904;2024-01-06T08:03:20;3.85;;;2.47;;
10473;SDS011;5284;50.446;7.904;2024-01-06T08:08:25;9.48;;;2.92;;
10473;SDS011;5284;50.446;7.904;2024-01-06T08:13:32;11.40;;;3.50;;
10473;SDS011;5284;50.446;7.904;2024-01-06T08:18:36;7.57;;;3.30;;
10473;SDS011;5284;50.446;7.904;2024-01-06T08:23:39;4.57;;;1.98;;
10473;SDS011;5284;50.446;7.904;2024-01-06T08:28:44;4.95;;;3.25;;
10473;SDS011;5284;50.446;7.904;2024-01-06T08:33:47;6.55;;;2.42;;
10473;SDS011;5284;50.446;7.904;2024-01-06T08:38:52;9.10;;;2.72;;
10473;SDS011;5284;50.446;7.904;2024-01-06T08:43:57;6.80;;;2.20;;
10473;SDS011;5284;50.446;7.904;2024-01-06T08:49:00;8.32;;;2.33;;
10473;SDS011;5284;50.446;7.904;2024-01-06T08:54:04;4.47;;;2.08;;
10473;SDS011;5284;50.446;7.904;2024-01-06T08:59:10;3.70;;;2.10;;
10473;SDS011;5284;50.446;7.904;2024-01-06T09:04:13;5.30;;;1.65;;
10473;SDS011;5284;50.446;7.904;2024-01-06T09:09:18;9.23;;;1.90;;
10473;SDS011;5284;50.446;7.904;2024-01-06T09:14:22;8.13;;;2.40;;
10473;SDS011;5284;50.446;7.904;2024-01-06T09:19:25;5.45;;;2.05;;
10473;SDS011;5284;50.446;7.904;2024-01-06T09:24:31;10.07;;;4.30;;
10473;SDS011;5284;50.446;7.904;2024-01-06T09:29:36;10.00;;;3.40;;
10473;SDS011;5284;50.446;7.904;2024-01-06T09:34:40;5.32;;;3.08;;
10473;SDS011;5284;50.446;7.904;2024-01-06T09:39:43;9.40;;;3.78;;
10473;SDS011;5284;50.446;7.904;2024-01-06T09:44:48;7.55;;;3.60;;
10473;SDS011;5284;50.446;7.904;2024-01-06T09:49:51;17.77;;;6.60;;
10473;SDS011;5284;50.446;7.904;2024-01-06T09:54:58;14.33;;;6.50;;
10473;SDS011;5284;50.446;7.904;2024-01-06T10:00:06;26.53;;;10.43;;
10473;SDS011;5284;50.446;7.904;2024-01-06T10:05:13;33.90;;;11.95;;
10473;SDS011;5284;50.446;7.904;2024-01-06T10:10:18;35.60;;;13.40;;
10473;SDS011;5284;50.446;7.904;2024-01-06T10:15:25;34.35;;;14.18;;
10473;SDS011;5284;50.446;7.904;2024-01-06T10:20:30;27.02;;;12.93;;
10473;SDS011;5284;50.446;7.904;2024-01-06T10:25:33;28.10;;;12.35;;
10473;SDS011;5284;50.446;7.904;2024-01-06T10:30:38;30.67;;;11.55;;
10473;SDS011;5284;50.446;7.904;2024-01-06T10:35:42;27.42;;;11.85;;
10473;SDS011;5284;50.446;7.904;2024-01-06T10:40:55;25.88;;;11.05;;
10473;SDS011;5284;50.446;7.904;2024-01-06T10:46:02;28.67;;;10.90;;
10473;SDS011;5284;50.446;7.904;2024-01-06T10:51:06;27.53;;;11.43;;
10473;SDS011;5284;50.446;7.904;2024-01-06T10:56:10;30.50;;;11.75;;
10473;SDS011;5284;50.446;7.904;2024-01-06T11:01:16;28.90;;;12.38;;
10473;SDS011;5284;50.446;7.904;2024-01-06T11:06:27;27.85;;;9.60;;
10473;SDS011;5284;50.446;7.904;2024-01-06T11:11:31;24.17;;;10.38;;
10473;SDS011;5284;50.446;7.904;2024-01-06T11:16:36;23.50;;;10.23;;
10473;SDS011;5284;50.446;7.904;2024-01-06T11:21:40;23.48;;;9.45;;
10473;SDS011;5284;50.446;7.904;2024-01-06T11:26:43;23.92;;;9.13;;
10473;SDS011;5284;50.446;7.904;2024-01-06T11:37:24;26.00;;;10.23;;
10473;SDS011;5284;50.446;7.904;2024-01-06T11:42:31;22.20;;;9.40;;
10473;SDS011;5284;50.446;7.904;2024-01-06T11:47:36;23.65;;;8.23;;
10473;SDS011;5284;50.446;7.904;2024-01-06T11:52:40;26.25;;;8.65;;
10473;SDS011;5284;50.446;7.904;2024-01-06T11:57:43;19.13;;;8.30;;
10473;SDS011;5284;50.446;7.904;2024-01-06T12:02:48;16.92;;;7.20;;
10473;SDS011;5284;50.446;7.904;2024-01-06T12:07:54;14.32;;;5.80;;
10473;SDS011;5284;50.446;7.904;2024-01-06T12:12:59;19.10;;;7.40;;
10473;SDS011;5284;50.446;7.904;2024-01-06T12:18:05;14.50;;;6.80;;
10473;SDS011;5284;50.446;7.904;2024-01-06T12:23:12;19.60;;;6.30;;
10473;SDS011;5284;50.446;7.904;2024-01-06T12:28:17;16.15;;;7.03;;
10473;SDS011;5284;50.446;7.904;2024-01-06T12:33:21;15.38;;;7.00;;
10473;SDS011;5284;50.446;7.904;2024-01-06T12:38:25;13.00;;;6.20;;
10473;SDS011;5284;50.446;7.904;2024-01-06T12:43:29;15.18;;;6.95;;
10473;SDS011;5284;50.446;7.904;2024-01-06T12:48:34;14.85;;;6.55;;
10473;SDS011;5284;50.446;7.904;2024-01-06T12:53:37;13.40;;;5.80;;
10473;SDS011;5284;50.446;7.904;2024-01-06T12:58:41;12.25;;;4.45;;
10473;SDS011;5284;50.446;7.904;2024-01-06T13:03:46;10.40;;;4.47;;
10473;SDS011;5284;50.446;7.904;2024-01-06T13:08:49;12.50;;;3.90;;
10473;SDS011;5284;50.446;7.904;2024-01-06T13:13:52;11.38;;;4.43;;
10473;SDS011;5284;50.446;7.904;2024-01-06T13:18:56;8.05;;;3.45;;
10473;SDS011;5284;50.446;7.904;2024-01-06T13:24:02;9.02;;;3.75;;
10473;SDS011;5284;50.446;7.904;2024-01-06T13:29:05;7.93;;;3.85;;
10473;SDS011;5284;50.446;7.904;2024-01-06T13:34:10;12.13;;;5.22;;
10473;SDS011;5284;50.446;7.904;2024-01-06T13:39:15;7.45;;;3.95;;
10473;SDS011;5284;50.446;7.904;2024-01-06T13:44:22;13.93;;;5.80;;
10473;SDS011;5284;50.446;7.904;2024-01-06T13:49:28;12.18;;;5.28;;
10473;SDS011;5284;50.446;7.904;2024-01-06T13:54:31;14.50;;;5.65;;
10473;SDS011;5284;50.446;7.904;2024-01-06T13:59:35;17.73;;;7.65;;
10473;SDS011;5284;50.446;7.904;2024-01-06T14:04:46;16.90;;;7.72;;
10473;SDS011;5284;50.446;7.904;2024-01-06T14:09:49;19.27;;;8.13;;
10473;SDS011;5284;50.446;7.904;2024-01-06T14:14:54;21.08;;;8.20;;
10473;SDS011;5284;50.446;7.904;2024-01-06T14:19:58;19.73;;;8.95;;
10473;SDS011;5284;50.446;7.904;2024-01-06T14:25:03;20.53;;;8.20;;
10473;SDS011;5284;50.446;7.904;2024-01-06T14:30:08;13.52;;;6.47;;
10473;SDS011;5284;50.446;7.904;2024-01-06T14:35:13;16.08;;;6.60;;
10473;SDS011;5284;50.446;7.904;2024-01-06T14:40:18;12.57;;;5.70;;
10473;SDS011;5284;50.446;7.904;2024-01-06T14:45:21;18.00;;;6.72;;
10473;SDS011;5284;50.446;7.904;2024-01-06T14:50:26;12.68;;;6.82;;
10473;SDS011;5284;50.446;7.904;2024-01-06T14:55:29;16.42;;;7.35;;
10473;SDS011;5284;50.446;7.904;2024-01-06T15:00:32;17.42;;;5.60;;
10473;SDS011;5284;50.446;7.904;2024-01-06T15:05:37;14.43;;;6.13;;
10473;SDS011;5284;50.446;7.904;2024-01-06T15:10:40;8.52;;;4.22;;
10473;SDS011;5284;50.446;7.904;2024-01-06T15:15:46;12.02;;;5.22;;
10473;SDS011;5284;50.446;7.904;2024-01-06T15:20:52;16.00;;;7.00;;
10473;SDS011;5284;50.446;7.904;2024-01-06T15:25:56;20.08;;;6.72;;
10473;SDS011;5284;50.446;7.904;2024-01-06T15:30:59;16.50;;;5.93;;
10473;SDS011;5284;50.446;7.904;2024-01-06T15:36:05;20.52;;;6.95;;
10473;SDS011;5284;50.446;7.904;2024-01-06T15:41:09;22.73;;;7.20;;
10473;SDS011;5284;50.446;7.904;2024-01-06T15:46:11;20.92;;;7.43;;
10473;SDS011;5284;50.446;7.904;2024-01-06T15:51:18;14.65;;;6.32;;
10473;SDS011;5284;50.446;7.904;2024-01-06T15:56:21;27.10;;;7.90;;
10473;SDS011;5284;50.446;7.904;2024-01-06T16:01:24;18.30;;;6.82;;
10473;SDS011;5284;50.446;7.904;2024-01-06T16:06:29;18.80;;;6.80;;
10473;SDS011;5284;50.446;7.904;2024-01-06T16:11:37;25.88;;;10.20;;
10473;SDS011;5284;50.446;7.904;2024-01-06T16:16:42;24.67;;;8.27;;
10473;SDS011;5284;50.446;7.904;2024-01-06T16:21:46;22.52;;;9.52;;
10473;SDS011;5284;50.446;7.904;2024-01-06T16:27:07;31.52;;;10.70;;
10473;SDS011;5284;50.446;7.904;2024-01-06T16:32:12;35.47;;;16.40;;
10473;SDS011;5284;50.446;7.904;2024-01-06T16:37:17;19.08;;;7.80;;
10473;SDS011;5284;50.446;7.904;2024-01-06T16:42:20;19.17;;;6.55;;
10473;SDS011;5284;50.446;7.904;2024-01-06T16:47:27;16.90;;;6.72;;
10473;SDS011;5284;50.446;7.904;2024-01-06T16:52:31;17.45;;;7.15;;
10473;SDS011;5284;50.446;7.904;2024-01-06T16:57:36;15.90;;;5.93;;
10473;SDS011;5284;50.446;7.904;2024-01-06T17:02:40;16.75;;;5.95;;
10473;SDS011;5284;50.446;7.904;2024-01-06T17:07:45;17.23;;;6.55;;
10473;SDS011;5284;50.446;7.904;2024-01-06T17:12:48;13.77;;;5.55;;
10473;SDS011;5284;50.446;7.904;2024-01-06T17:17:52;14.93;;;6.00;;
10473;SDS011;5284;50.446;7.904;2024-01-06T17:22:56;15.43;;;6.18;;
10473;SDS011;5284;50.446;7.904;2024-01-06T17:27:59;12.35;;;5.80;;
10473;SDS011;5284;50.446;7.904;2024-01-06T17:33:04;17.25;;;6.72;;
10473;SDS011;5284;50.446;7.904;2024-01-06T17:38:09;14.32;;;5.53;;
10473;SDS011;5284;50.446;7.904;2024-01-06T17:43:12;17.02;;;6.47;;
10473;SDS011;5284;50.446;7.904;2024-01-06T17:48:15;13.77;;;5.18;;
10473;SDS011;5284;50.446;7.904;2024-01-06T17:53:20;22.25;;;8.50;;
10473;SDS011;5284;50.446;7.904;2024-01-06T17:58:23;24.30;;;10.73;;
10473;SDS011;5284;50.446;7.904;2024-01-06T18:03:28;25.77;;;6.65;;
10473;SDS011;5284;50.446;7.904;2024-01-06T18:08:32;23.17;;;9.65;;
10473;SDS011;5284;50.446;7.904;2024-01-06T18:13:35;27.35;;;9.65;;
10473;SDS011;5284;50.446;7.904;2024-01-06T18:18:38;22.48;;;8.88;;
10473;SDS011;5284;50.446;7.904;2024-01-06T18:23:43;25.45;;;8.05;;
10473;SDS011;5284;50.446;7.904;2024-01-06T18:28:46;24.38;;;9.43;;
10473;SDS011;5284;50.446;7.904;2024-01-06T18:33:49;35.92;;;13.85;;
10473;SDS011;5284;50.446;7.904;2024-01-06T18:38:54;30.40;;;10.25;;
10473;SDS011;5284;50.446;7.904;2024-01-06T18:43:59;50.55;;;17.60;;
10473;SDS011;5284;50.446;7.904;2024-01-06T18:49:03;20.60;;;9.30;;
10473;SDS011;5284;50.446;7.904;2024-01-06T18:54:08;19.15;;;9.10;;
10473;SDS011;5284;50.446;7.904;2024-01-06T18:59:23;42.57;;;13.63;;
10473;SDS011;5284;50.446;7.904;2024-01-06T19:04:26;20.60;;;9.07;;
10473;SDS011;5284;50.446;7.904;2024-01-06T19:09:30;21.42;;;8.52;;
10473;SDS011;5284;50.446;7.904;2024-01-06T19:19:39;17.02;;;7.30;;
10473;SDS011;5284;50.446;7.904;2024-01-06T19:24:45;22.08;;;8.13;;
10473;SDS011;5284;50.446;7.904;2024-01-06T19:29:49;15.75;;;8.07;;
10473;SDS011;5284;50.446;7.904;2024-01-06T19:34:54;16.02;;;7.55;;
10473;SDS011;5284;50.446;7.904;2024-01-06T19:40:01;16.98;;;7.75;;
10473;SDS011;5284;50.446;7.904;2024-01-06T19:45:04;16.63;;;6.90;;
10473;SDS011;5284;50.446;7.904;2024-01-06T19:50:07;17.60;;;7.68;;
10473;SDS011;5284;50.446;7.904;2024-01-06T19:55:12;15.93;;;6.45;;
10473;SDS011;5284;50.446;7.904;2024-01-06T20:00:15;17.85;;;7.20;;
10473;SDS011;5284;50.446;7.904;2024-01-06T20:05:19;20.30;;;7.65;;
10473;SDS011;5284;50.446;7.904;2024-01-06T20:10:24;14.63;;;6.20;;
10473;SDS011;5284;50.446;7.904;2024-01-06T20:15:28;21.65;;;7.85;;
10473;SDS011;5284;50.446;7.904;2024-01-06T20:20:31;19.50;;;7.78;;
10473;SDS011;5284;50.446;7.904;2024-01-06T20:25:35;12.90;;;6.07;;
10473;SDS011;5284;50.446;7.904;2024-01-06T20:30:43;18.45;;;6.25;;
10473;SDS011;5284;50.446;7.904;2024-01-06T20:35:46;14.57;;;6.65;;
10473;SDS011;5284;50.446;7.904;2024-01-06T20:40:51;16.42;;;7.13;;
10473;SDS011;5284;50.446;7.904;2024-01-06T20:45:54;18.55;;;7.32;;
10473;SDS011;5284;50.446;7.904;2024-01-06T20:50:57;16.80;;;7.07;;
10473;SDS011;5284;50.446;7.904;2024-01-06T20:56:05;16.70;;;6.78;;
10473;SDS011;5284;50.446;7.904;2024-01-06T21:01:09;15.82;;;7.30;;
10473;SDS011;5284;50.446;7.904;2024-01-06T21:06:14;12.60;;;6.03;;
10473;SDS011;5284;50.446;7.904;2024-01-06T21:11:18;18.50;;;7.63;;
10473;SDS011;5284;50.446;7.904;2024-01-06T21:16:21;14.38;;;6.72;;
10473;SDS011;5284;50.446;7.904;2024-01-06T21:21:24;14.80;;;6.07;;
10473;SDS011;5284;50.446;7.904;2024-01-06T21:26:29;17.65;;;8.20;;
10473;SDS011;5284;50.446;7.904;2024-01-06T21:31:34;18.17;;;7.43;;
10473;SDS011;5284;50.446;7.904;2024-01-06T21:36:37;19.85;;;7.38;;
10473;SDS011;5284;50.446;7.904;2024-01-06T21:41:42;18.67;;;6.80;;
10473;SDS011;5284;50.446;7.904;2024-01-06T21:46:46;31.83;;;11.77;;
10473;SDS011;5284;50.446;7.904;2024-01-06T21:51:50;27.17;;;9.95;;
10473;SDS011;5284;50.446;7.904;2024-01-06T21:56:57;36.42;;;12.93;;
10473;SDS011;5284;50.446;7.904;2024-01-06T22:02:00;21.58;;;7.30;;
10473;SDS011;5284;50.446;7.904;2024-01-06T22:07:03;13.18;;;7.60;;
10473;SDS011;5284;50.446;7.904;2024-01-06T22:12:08;12.90;;;6.30;;
10473;SDS011;5284;50.446;7.904;2024-01-06T22:17:11;16.10;;;6.88;;
10473;SDS011;5284;50.446;7.904;2024-01-06T22:22:14;14.25;;;6.32;;
10473;SDS011;5284;50.446;7.904;2024-01-06T22:27:19;26.75;;;9.13;;
10473;SDS011;5284;50.446;7.904;2024-01-06T22:32:23;30.05;;;13.35;;
10473;SDS011;5284;50.446;7.904;2024-01-06T22:37:27;17.40;;;8.82;;
10473;SDS011;5284;50.446;7.904;2024-01-06T22:42:32;22.65;;;13.07;;
10473;SDS011;5284;50.446;7.904;2024-01-06T22:47:38;17.58;;;6.90;;
10473;SDS011;5284;50.446;7.904;2024-01-06T22:52:43;14.55;;;7.57;;
10473;SDS011;5284;50.446;7.904;2024-01-06T22:57:47;13.20;;;6.40;;
10473;SDS011;5284;50.446;7.904;2024-01-06T23:02:51;10.73;;;6.40;;
10473;SDS011;5284;50.446;7.904;2024-01-06T23:07:54;13.75;;;6.43;;
10473;SDS011;5284;50.446;7.904;2024-01-06T23:13:00;11.18;;;6.05;;
10473;SDS011;5284;50.446;7.904;2024-01-06T23:18:05;13.35;;;6.68;;
10473;SDS011;5284;50.446;7.904;2024-01-06T23:23:10;13.50;;;5.80;;
10473;SDS011;5284;50.446;7.904;2024-01-06T23:28:14;12.25;;;5.68;;
10473;SDS011;5284;50.446;7.904;2024-01-06T23:33:17;10.57;;;4.97;;
10473;SDS011;5284;50.446;7.904;2024-01-06T23:38:20;14.40;;;6.35;;
10473;SDS011;5284;50.446;7.904;2024-01-06T23:43:30;10.10;;;5.40;;
10473;SDS011;5284;50.446;7.904;2024-01-06T23:48:33;8.27;;;4.65;;
10473;SDS011;5284;50.446;7.904;2024-01-06T23:53:39;7.53;;;4.05;;
10473;SDS011;5284;50.446;7.904;2024-01-06T23:58:43;9.25;;;4.10;;
